Nearby METAR Reports

 

KSJC - San Jose, California, USA
Distance from station: NE 9mi, 14km
Updated: Thu, 19-Oct-2017 2:53pm CDT
Mostly cloudy
Mostly cloudy
 Wind from NW
Wind: NW 6 mph , 9 km/h
Temperature: 64°F , 18°C
Dew Point: 52°F , 11°C
Humidity: 64%
Barometer: 29.99 inHg , 1015.6 hPa
Clouds: Mostly cloudy
Visibility: 10 miles , 16 km
Cloud details: Few Clouds 1300 ft
Partly cloudy 3000 ft
Mostly cloudy 5500 ft
2017/10/19 19:53 KSJC 191953Z 31005KT 10SM FEW013 SCT030 BKN055 18/11 A2999 RMK AO2 SLP154 T01830111
KNUQ - Moffett Nas/Mtn, California, USA
Distance from station: N 9mi, 14km
Updated: Thu, 19-Oct-2017 2:56pm CDT
Mostly cloudy
Mostly cloudy
 Wind from NNE
Wind: NNE 6 mph , 9 km/h
Temperature: 64°F , 18°C
Dew Point: 52°F , 11°C
Humidity: 64%
Barometer: 29.99 inHg , 1015.6 hPa
Clouds: Mostly cloudy
Visibility: 10 miles , 16 km
Cloud details: Few Clouds 3300 ft
Mostly cloudy 7000 ft
2017/10/19 19:56 KNUQ 191956Z 02005KT 10SM FEW033 BKN070 18/11 A2999 RMK AO2 SLP158 T01830111
KPAO - Palo Alto, California, USA
Distance from station: NNW 14mi, 23km
Updated: Thu, 19-Oct-2017 2:47pm CDT
Mostly cloudy
Mostly cloudy
 Wind from varies
Wind: varies 6 mph , 9 km/h
Clouds: Mostly cloudy
Visibility: 10 miles , 16 km
Cloud details: Partly cloudy 2500 ft
Mostly cloudy 3500 ft
2017/10/19 19:47 KPAO 191947Z VRB05KT 10SM SCT025 BKN035 17/-- A2999
 
KRHV - San Jose/Reid, California, USA
Distance from station: ENE 12mi, 19km
Updated: Thu, 19-Oct-2017 2:47pm CDT
Mostly cloudy
Mostly cloudy
 Wind from NNW
Wind: NNW 9 mph , 15 km/h
Temperature: 64°F , 18°C
Dew Point: 52°F , 11°C
Humidity: 64%
Barometer: 30.03 inHg , 1016.9 hPa
Clouds: Mostly cloudy
Visibility: 10 miles , 16 km
Cloud details: Partly cloudy 3000 ft
Mostly cloudy 6000 ft
2017/10/19 19:47 KRHV 191947Z 34008KT 10SM SCT030 BKN060 18/11 A3003
KOAK - Oakland, California, USA
Distance from station: NNW 31mi, 50km
Updated: Thu, 19-Oct-2017 2:53pm CDT
Mostly cloudy
Mostly cloudy
 Wind from WSW
Wind: WSW 9 mph , 15 km/h
Temperature: 63°F , 17°C
Dew Point: 55°F , 13°C
Humidity: 77%
Barometer: 30.00 inHg , 1015.9 hPa
Clouds: Mostly cloudy
Visibility: 10 miles , 16 km
Cloud details: Mostly cloudy 1800 ft
Mostly cloudy 4400 ft
2017/10/19 19:53 KOAK 191953Z 25008KT 10SM BKN018 BKN044 17/13 A3000 RMK AO2 SLP157 T01670128
KSQL - San Carlos Airpo, California, USA
Distance from station: NW 21mi, 34km
Updated: Thu, 19-Oct-2017 2:47pm CDT
Mostly cloudy
Mostly cloudy
 Wind from W
Wind: W 10 mph , 17 km/h
Temperature: 64°F , 18°C
Dew Point: 54°F , 12°C
Humidity: 68%
Barometer: 30.00 inHg , 1015.9 hPa
Clouds: Mostly cloudy
Visibility: 10 miles , 16 km
Cloud details: Few Clouds 2000 ft
Mostly cloudy 2900 ft
2017/10/19 19:47 KSQL 191947Z 28009KT 10SM FEW020 BKN029 18/12 A3000
 
KSFO - San Francisco, California, USA
Distance from station: NW 30mi, 49km
Updated: Thu, 19-Oct-2017 2:56pm CDT
Mostly cloudy
Mostly cloudy
 Wind from SW
Wind: SW 13 mph , 20 km/h
Temperature: 64°F , 18°C
Dew Point: 52°F , 11°C
Humidity: 64%
Barometer: 29.99 inHg , 1015.6 hPa
Clouds: Mostly cloudy
Visibility: 10 miles , 16 km
Cloud details: Mostly cloudy 3000 ft
Mostly cloudy 4800 ft
2017/10/19 19:56 KSFO 191956Z 23011KT 10SM BKN030 BKN048 18/11 A2999 RMK AO2 SLP155 T01780111
KE16 - San Martin, California, USA
Distance from station: ESE 27mi, 43km
Updated: Thu, 19-Oct-2017 2:55pm CDT
Overcast
Overcast
 Wind from W
Wind: W 3 mph , 6 km/h
Temperature: 66°F , 19°C
Dew Point: 48°F , 9°C
Humidity: 52%
Barometer: 30.00 inHg , 1015.9 hPa
Clouds: Overcast
Visibility: 10 miles , 16 km
Cloud details: Mostly cloudy 4800 ft
Overcast 5000 ft
2017/10/19 19:55 KE16 191955Z AUTO 27003KT 10SM BKN048 OVC050 19/09 A3000 RMK AO2
KWVI - Watsonville, California, USA
Distance from station: SSE 27mi, 44km
Updated: Thu, 19-Oct-2017 2:53pm CDT
Overcast
Overcast
 Wind from SW
Wind: SW 6 mph , 9 km/h
Temperature: 59°F , 15°C
Dew Point: 52°F , 11°C
Humidity: 77%
Barometer: 30.01 inHg , 1016.3 hPa
Clouds: Overcast
Visibility: 10 miles , 16 km
Cloud details: Overcast 4700 ft
2017/10/19 19:53 KWVI 191953Z AUTO 22005KT 10SM OVC047 15/11 A3001 RMK AO2 SLP161 T01500106
 
KHAF - Half Moon Bay, California, USA
Distance from station: WNW 31mi, 50km
Updated: Thu, 19-Oct-2017 2:55pm CDT
Overcast
Overcast
 Wind from SSW
Wind: SSW 3 mph , 6 km/h
Temperature: 57°F , 14°C
Dew Point: 54°F , 12°C
Humidity: 88%
Barometer: 29.98 inHg , 1015.2 hPa
Clouds: Overcast
Visibility: 10 miles , 16 km
Cloud details: Overcast 2300 ft
2017/10/19 19:55 KHAF 191955Z AUTO 21003KT 10SM OVC023 14/12 A2998 RMK AO2
KHWD - Hayward, California, USA
Distance from station: N 28mi, 44km
Updated: Thu, 19-Oct-2017 2:54pm CDT
Overcast
Overcast
 Wind from W
Wind: W 6 mph , 9 km/h
Temperature: 63°F , 17°C
Dew Point: 50°F , 10°C
Humidity: 64%
Barometer: 29.99 inHg , 1015.6 hPa
Clouds: Overcast
Visibility: 10 miles , 16 km
Cloud details: Partly cloudy 1700 ft
Overcast 3900 ft
2017/10/19 19:54 KHWD 191954Z 26005KT 10SM SCT017 OVC039 17/10 A2999 RMK AO2 SLP166 T01670100
KLVK - Livermore, California, USA
Distance from station: NNE 31mi, 51km
Updated: Thu, 19-Oct-2017 2:53pm CDT
Mostly cloudy
Mostly cloudy
 Wind from W
Wind: W 9 mph , 15 km/h
Temperature: 64°F , 18°C
Dew Point: 52°F , 11°C
Humidity: 64%
Barometer: 29.97 inHg , 1014.9 hPa
Clouds: Mostly cloudy
Visibility: 10 miles , 16 km
Cloud details: Mostly cloudy 2800 ft
2017/10/19 19:53 KLVK 191953Z 26008KT 10SM BKN028 18/11 A2997 RMK AO2 SLP147 T01780111